Airport View

Enter AWOS ICAO identifier for current METAR.

ex. KFNL

KETB 170955Z AUTO 16005KT 10SM CLR 00/M01 A3010 RMK AO2

17 Nov 2019 10:07

Frequency: 120.0

Phone: 262-334-6161

Other Area AWOS: KMWC - KUES - KSBM - KUNU

TAF AMD KUES 170903Z 1709/1806 17006KT P6SM BKN150 FM171900 19008KT P6SM VCSH OVC060 FM172100 19008KT 5SM -RASN BR OVC018 FM172300 20008KT 4SM -RA BR OVC009 FM180100 22005KT 5SM -DZ BR OVC005 FM180400 25004KT P6SM OVC008